sensor_id;sensor_type;location;lat;lon;timestamp;P1;durP1;ratioP1;P2;durP2;ratioP2
60999;SDS011;46879;45.658;11.814;2022-09-09T00:11:54;8.93;;;2.17;;
60999;SDS011;46879;45.658;11.814;2022-09-09T00:16:59;6.25;;;2.75;;
60999;SDS011;46879;45.658;11.814;2022-09-09T00:27:24;7.28;;;3.20;;
60999;SDS011;46879;45.658;11.814;2022-09-09T00:32:30;5.47;;;2.88;;
60999;SDS011;46879;45.658;11.814;2022-09-09T00:37:32;6.40;;;2.65;;
60999;SDS011;46879;45.658;11.814;2022-09-09T00:53:11;6.97;;;2.88;;
60999;SDS011;46879;45.658;11.814;2022-09-09T00:58:08;8.10;;;3.25;;
60999;SDS011;46879;45.658;11.814;2022-09-09T01:13:53;11.15;;;3.05;;
60999;SDS011;46879;45.658;11.814;2022-09-09T01:19:01;9.85;;;3.20;;
60999;SDS011;46879;45.658;11.814;2022-09-09T01:24:05;7.93;;;2.95;;
60999;SDS011;46879;45.658;11.814;2022-09-09T01:29:09;8.95;;;3.42;;
60999;SDS011;46879;45.658;11.814;2022-09-09T01:34:13;8.43;;;3.35;;
60999;SDS011;46879;45.658;11.814;2022-09-09T01:39:14;7.18;;;3.30;;
60999;SDS011;46879;45.658;11.814;2022-09-09T01:44:15;8.68;;;2.80;;
60999;SDS011;46879;45.658;11.814;2022-09-09T01:49:16;6.68;;;3.20;;
60999;SDS011;46879;45.658;11.814;2022-09-09T01:54:17;10.18;;;3.35;;
60999;SDS011;46879;45.658;11.814;2022-09-09T02:04:44;6.32;;;2.80;;
60999;SDS011;46879;45.658;11.814;2022-09-09T02:09:51;6.55;;;2.30;;
60999;SDS011;46879;45.658;11.814;2022-09-09T02:15:03;9.05;;;2.47;;
60999;SDS011;46879;45.658;11.814;2022-09-09T02:20:12;14.55;;;2.50;;
60999;SDS011;46879;45.658;11.814;2022-09-09T02:25:14;7.18;;;2.90;;
60999;SDS011;46879;45.658;11.814;2022-09-09T02:30:18;4.30;;;2.13;;
60999;SDS011;46879;45.658;11.814;2022-09-09T02:35:21;6.72;;;2.35;;
60999;SDS011;46879;45.658;11.814;2022-09-09T02:40:24;11.80;;;3.05;;
60999;SDS011;46879;45.658;11.814;2022-09-09T02:45:25;9.52;;;2.42;;
60999;SDS011;46879;45.658;11.814;2022-09-09T02:50:34;4.07;;;1.98;;
60999;SDS011;46879;45.658;11.814;2022-09-09T02:55:39;10.80;;;2.65;;
60999;SDS011;46879;45.658;11.814;2022-09-09T03:00:46;2.97;;;2.17;;
60999;SDS011;46879;45.658;11.814;2022-09-09T03:05:48;3.30;;;1.65;;
60999;SDS011;46879;45.658;11.814;2022-09-09T03:10:49;8.90;;;2.17;;
60999;SDS011;46879;45.658;11.814;2022-09-09T03:15:49;5.88;;;2.20;;
60999;SDS011;46879;45.658;11.814;2022-09-09T03:20:50;8.70;;;2.40;;
60999;SDS011;46879;45.658;11.814;2022-09-09T03:25:51;6.07;;;2.05;;
60999;SDS011;46879;45.658;11.814;2022-09-09T03:30:52;4.30;;;2.20;;
60999;SDS011;46879;45.658;11.814;2022-09-09T03:35:57;9.45;;;2.30;;
60999;SDS011;46879;45.658;11.814;2022-09-09T03:40:58;9.03;;;2.70;;
60999;SDS011;46879;45.658;11.814;2022-09-09T03:45:58;6.10;;;2.03;;
60999;SDS011;46879;45.658;11.814;2022-09-09T03:50:59;6.23;;;2.47;;
60999;SDS011;46879;45.658;11.814;2022-09-09T03:56:01;11.27;;;2.10;;
60999;SDS011;46879;45.658;11.814;2022-09-09T04:01:06;6.70;;;2.25;;
60999;SDS011;46879;45.658;11.814;2022-09-09T04:06:11;8.43;;;2.00;;
60999;SDS011;46879;45.658;11.814;2022-09-09T04:11:13;7.70;;;2.13;;
60999;SDS011;46879;45.658;11.814;2022-09-09T04:16:14;5.45;;;2.05;;
60999;SDS011;46879;45.658;11.814;2022-09-09T04:21:14;6.72;;;2.10;;
60999;SDS011;46879;45.658;11.814;2022-09-09T04:26:16;5.03;;;2.35;;
60999;SDS011;46879;45.658;11.814;2022-09-09T04:31:17;5.25;;;1.88;;
60999;SDS011;46879;45.658;11.814;2022-09-09T04:36:20;7.00;;;2.30;;
60999;SDS011;46879;45.658;11.814;2022-09-09T04:41:20;9.75;;;2.25;;
60999;SDS011;46879;45.658;11.814;2022-09-09T04:46:21;20.35;;;2.35;;
60999;SDS011;46879;45.658;11.814;2022-09-09T04:51:22;12.15;;;2.65;;
60999;SDS011;46879;45.658;11.814;2022-09-09T04:56:23;7.60;;;2.30;;
60999;SDS011;46879;45.658;11.814;2022-09-09T05:01:26;7.20;;;2.80;;
60999;SDS011;46879;45.658;11.814;2022-09-09T05:06:27;9.40;;;2.57;;
60999;SDS011;46879;45.658;11.814;2022-09-09T05:11:28;5.67;;;2.30;;
60999;SDS011;46879;45.658;11.814;2022-09-09T05:16:30;11.15;;;2.60;;
60999;SDS011;46879;45.658;11.814;2022-09-09T05:21:31;12.85;;;2.60;;
60999;SDS011;46879;45.658;11.814;2022-09-09T05:26:31;16.63;;;2.77;;
60999;SDS011;46879;45.658;11.814;2022-09-09T05:31:32;12.18;;;2.80;;
60999;SDS011;46879;45.658;11.814;2022-09-09T05:36:32;13.73;;;2.45;;
60999;SDS011;46879;45.658;11.814;2022-09-09T05:41:33;8.93;;;2.70;;
60999;SDS011;46879;45.658;11.814;2022-09-09T05:46:34;10.40;;;2.53;;
60999;SDS011;46879;45.658;11.814;2022-09-09T05:51:35;5.65;;;2.17;;
60999;SDS011;46879;45.658;11.814;2022-09-09T05:56:35;7.57;;;2.30;;
60999;SDS011;46879;45.658;11.814;2022-09-09T06:01:36;5.07;;;2.50;;
60999;SDS011;46879;45.658;11.814;2022-09-09T06:06:40;7.25;;;2.45;;
60999;SDS011;46879;45.658;11.814;2022-09-09T06:11:41;7.45;;;2.20;;
60999;SDS011;46879;45.658;11.814;2022-09-09T06:16:42;12.13;;;2.42;;
60999;SDS011;46879;45.658;11.814;2022-09-09T06:21:43;9.25;;;2.00;;
60999;SDS011;46879;45.658;11.814;2022-09-09T06:26:44;12.43;;;2.73;;
60999;SDS011;46879;45.658;11.814;2022-09-09T06:31:45;5.28;;;2.00;;
60999;SDS011;46879;45.658;11.814;2022-09-09T06:36:45;10.20;;;2.77;;
60999;SDS011;46879;45.658;11.814;2022-09-09T06:41:46;4.65;;;2.17;;
60999;SDS011;46879;45.658;11.814;2022-09-09T06:46:47;6.15;;;2.35;;
60999;SDS011;46879;45.658;11.814;2022-09-09T06:51:47;8.60;;;2.20;;
60999;SDS011;46879;45.658;11.814;2022-09-09T06:56:49;4.85;;;2.30;;
60999;SDS011;46879;45.658;11.814;2022-09-09T07:01:49;7.63;;;2.33;;
60999;SDS011;46879;45.658;11.814;2022-09-09T07:06:51;5.32;;;2.35;;
60999;SDS011;46879;45.658;11.814;2022-09-09T07:11:52;5.80;;;2.45;;
60999;SDS011;46879;45.658;11.814;2022-09-09T07:16:53;5.55;;;2.28;;
60999;SDS011;46879;45.658;11.814;2022-09-09T07:21:53;6.10;;;2.00;;
60999;SDS011;46879;45.658;11.814;2022-09-09T07:26:53;10.27;;;2.40;;
60999;SDS011;46879;45.658;11.814;2022-09-09T07:31:54;6.73;;;2.43;;
60999;SDS011;46879;45.658;11.814;2022-09-09T07:36:54;4.70;;;2.05;;
60999;SDS011;46879;45.658;11.814;2022-09-09T07:41:57;6.85;;;2.72;;
60999;SDS011;46879;45.658;11.814;2022-09-09T07:46:58;15.02;;;2.33;;
60999;SDS011;46879;45.658;11.814;2022-09-09T07:51:58;5.10;;;2.23;;
60999;SDS011;46879;45.658;11.814;2022-09-09T07:56:59;5.68;;;2.42;;
60999;SDS011;46879;45.658;11.814;2022-09-09T08:01:59;6.63;;;2.40;;
60999;SDS011;46879;45.658;11.814;2022-09-09T08:07:00;3.60;;;2.10;;
60999;SDS011;46879;45.658;11.814;2022-09-09T08:12:01;3.85;;;2.25;;
60999;SDS011;46879;45.658;11.814;2022-09-09T08:17:02;6.03;;;2.22;;
60999;SDS011;46879;45.658;11.814;2022-09-09T08:22:02;6.57;;;2.38;;
60999;SDS011;46879;45.658;11.814;2022-09-09T08:27:03;4.65;;;2.05;;
60999;SDS011;46879;45.658;11.814;2022-09-09T08:32:03;13.77;;;2.63;;
60999;SDS011;46879;45.658;11.814;2022-09-09T08:37:04;6.03;;;2.35;;
60999;SDS011;46879;45.658;11.814;2022-09-09T08:53:20;4.63;;;2.40;;
60999;SDS011;46879;45.658;11.814;2022-09-09T08:58:28;5.50;;;2.47;;
60999;SDS011;46879;45.658;11.814;2022-09-09T09:08:53;4.23;;;2.23;;
60999;SDS011;46879;45.658;11.814;2022-09-09T09:14:20;5.32;;;2.40;;
60999;SDS011;46879;45.658;11.814;2022-09-09T09:19:26;7.18;;;2.20;;
60999;SDS011;46879;45.658;11.814;2022-09-09T09:29:32;5.47;;;1.98;;
60999;SDS011;46879;45.658;11.814;2022-09-09T09:34:35;4.82;;;1.77;;
60999;SDS011;46879;45.658;11.814;2022-09-09T09:39:35;5.57;;;2.10;;
60999;SDS011;46879;45.658;11.814;2022-09-09T09:44:38;3.72;;;2.22;;
60999;SDS011;46879;45.658;11.814;2022-09-09T09:49:39;4.60;;;2.30;;
60999;SDS011;46879;45.658;11.814;2022-09-09T09:54:41;6.38;;;2.00;;
60999;SDS011;46879;45.658;11.814;2022-09-09T09:59:42;3.83;;;1.98;;
60999;SDS011;46879;45.658;11.814;2022-09-09T10:04:43;8.48;;;2.30;;
60999;SDS011;46879;45.658;11.814;2022-09-09T10:09:45;11.93;;;2.25;;
60999;SDS011;46879;45.658;11.814;2022-09-09T10:25:53;4.15;;;1.92;;
60999;SDS011;46879;45.658;11.814;2022-09-09T10:36:29;2.42;;;1.63;;
60999;SDS011;46879;45.658;11.814;2022-09-09T10:52:31;7.97;;;1.83;;
60999;SDS011;46879;45.658;11.814;2022-09-09T11:03:03;6.35;;;1.50;;
60999;SDS011;46879;45.658;11.814;2022-09-09T11:08:05;2.10;;;1.60;;
60999;SDS011;46879;45.658;11.814;2022-09-09T11:13:15;2.75;;;1.67;;
60999;SDS011;46879;45.658;11.814;2022-09-09T11:18:21;2.60;;;1.50;;
60999;SDS011;46879;45.658;11.814;2022-09-09T11:23:24;7.38;;;1.90;;
60999;SDS011;46879;45.658;11.814;2022-09-09T11:28:56;9.13;;;1.90;;
60999;SDS011;46879;45.658;11.814;2022-09-09T11:44:57;3.38;;;2.05;;
60999;SDS011;46879;45.658;11.814;2022-09-09T11:55:34;7.10;;;2.00;;
60999;SDS011;46879;45.658;11.814;2022-09-09T12:00:41;6.25;;;1.80;;
60999;SDS011;46879;45.658;11.814;2022-09-09T12:05:44;4.57;;;1.70;;
60999;SDS011;46879;45.658;11.814;2022-09-09T12:10:53;2.38;;;1.60;;
60999;SDS011;46879;45.658;11.814;2022-09-09T12:16:01;6.30;;;1.88;;
60999;SDS011;46879;45.658;11.814;2022-09-09T12:26:26;5.65;;;2.28;;
60999;SDS011;46879;45.658;11.814;2022-09-09T12:36:37;6.13;;;2.15;;
60999;SDS011;46879;45.658;11.814;2022-09-09T12:41:40;5.53;;;1.85;;
60999;SDS011;46879;45.658;11.814;2022-09-09T12:46:44;6.00;;;1.95;;
60999;SDS011;46879;45.658;11.814;2022-09-09T12:51:46;11.45;;;2.28;;
60999;SDS011;46879;45.658;11.814;2022-09-09T12:56:46;7.83;;;2.47;;
60999;SDS011;46879;45.658;11.814;2022-09-09T13:01:54;6.43;;;2.17;;
60999;SDS011;46879;45.658;11.814;2022-09-09T13:07:05;8.25;;;1.88;;
60999;SDS011;46879;45.658;11.814;2022-09-09T13:12:13;11.35;;;2.72;;
60999;SDS011;46879;45.658;11.814;2022-09-09T13:17:23;3.63;;;1.90;;
60999;SDS011;46879;45.658;11.814;2022-09-09T13:22:35;9.65;;;1.90;;
60999;SDS011;46879;45.658;11.814;2022-09-09T13:27:41;6.60;;;1.83;;
60999;SDS011;46879;45.658;11.814;2022-09-09T13:32:42;7.65;;;1.77;;
60999;SDS011;46879;45.658;11.814;2022-09-09T13:37:42;3.87;;;1.40;;
60999;SDS011;46879;45.658;11.814;2022-09-09T13:42:43;9.60;;;1.90;;
60999;SDS011;46879;45.658;11.814;2022-09-09T13:47:44;4.20;;;1.85;;
60999;SDS011;46879;45.658;11.814;2022-09-09T13:52:46;4.25;;;1.67;;
60999;SDS011;46879;45.658;11.814;2022-09-09T13:58:02;2.88;;;1.20;;
60999;SDS011;46879;45.658;11.814;2022-09-09T14:03:05;1.67;;;1.17;;
60999;SDS011;46879;45.658;11.814;2022-09-09T14:08:07;3.88;;;1.30;;
60999;SDS011;46879;45.658;11.814;2022-09-09T14:13:16;5.97;;;1.35;;
60999;SDS011;46879;45.658;11.814;2022-09-09T14:18:18;1.77;;;1.25;;
60999;SDS011;46879;45.658;11.814;2022-09-09T14:23:18;3.75;;;1.20;;
60999;SDS011;46879;45.658;11.814;2022-09-09T14:28:18;3.90;;;1.47;;
60999;SDS011;46879;45.658;11.814;2022-09-09T14:33:19;1.90;;;1.17;;
60999;SDS011;46879;45.658;11.814;2022-09-09T14:38:19;4.78;;;1.15;;
60999;SDS011;46879;45.658;11.814;2022-09-09T14:43:20;3.27;;;1.20;;
60999;SDS011;46879;45.658;11.814;2022-09-09T14:48:20;7.30;;;0.90;;
60999;SDS011;46879;45.658;11.814;2022-09-09T14:53:20;2.70;;;1.47;;
60999;SDS011;46879;45.658;11.814;2022-09-09T14:58:21;14.70;;;1.55;;
60999;SDS011;46879;45.658;11.814;2022-09-09T15:03:22;3.30;;;1.10;;
60999;SDS011;46879;45.658;11.814;2022-09-09T15:08:23;5.72;;;1.40;;
60999;SDS011;46879;45.658;11.814;2022-09-09T15:13:23;2.50;;;1.20;;
60999;SDS011;46879;45.658;11.814;2022-09-09T15:18:24;3.40;;;1.33;;
60999;SDS011;46879;45.658;11.814;2022-09-09T15:23:25;2.47;;;1.20;;
60999;SDS011;46879;45.658;11.814;2022-09-09T15:28:25;5.15;;;0.82;;
60999;SDS011;46879;45.658;11.814;2022-09-09T15:33:26;2.38;;;1.20;;
60999;SDS011;46879;45.658;11.814;2022-09-09T15:38:27;6.05;;;1.42;;
60999;SDS011;46879;45.658;11.814;2022-09-09T15:43:31;2.22;;;1.10;;
60999;SDS011;46879;45.658;11.814;2022-09-09T15:48:31;2.33;;;1.03;;
60999;SDS011;46879;45.658;11.814;2022-09-09T15:53:34;6.28;;;1.30;;
60999;SDS011;46879;45.658;11.814;2022-09-09T15:58:35;6.33;;;1.37;;
60999;SDS011;46879;45.658;11.814;2022-09-09T16:03:36;12.90;;;1.38;;
60999;SDS011;46879;45.658;11.814;2022-09-09T16:08:39;2.35;;;1.48;;
60999;SDS011;46879;45.658;11.814;2022-09-09T16:13:45;6.00;;;1.88;;
60999;SDS011;46879;45.658;11.814;2022-09-09T16:18:47;4.80;;;2.17;;
60999;SDS011;46879;45.658;11.814;2022-09-09T16:23:52;6.13;;;1.77;;
60999;SDS011;46879;45.658;11.814;2022-09-09T16:28:53;3.60;;;1.92;;
60999;SDS011;46879;45.658;11.814;2022-09-09T16:33:54;4.55;;;1.98;;
60999;SDS011;46879;45.658;11.814;2022-09-09T16:38:55;4.45;;;2.28;;
60999;SDS011;46879;45.658;11.814;2022-09-09T16:43:58;4.60;;;2.42;;
60999;SDS011;46879;45.658;11.814;2022-09-09T16:49:00;4.50;;;2.13;;
60999;SDS011;46879;45.658;11.814;2022-09-09T16:54:02;5.90;;;2.00;;
60999;SDS011;46879;45.658;11.814;2022-09-09T16:59:05;6.13;;;2.20;;
60999;SDS011;46879;45.658;11.814;2022-09-09T17:04:12;3.83;;;2.13;;
60999;SDS011;46879;45.658;11.814;2022-09-09T17:09:16;5.28;;;2.13;;
60999;SDS011;46879;45.658;11.814;2022-09-09T17:14:18;7.88;;;2.65;;
60999;SDS011;46879;45.658;11.814;2022-09-09T17:19:20;2.78;;;1.88;;
60999;SDS011;46879;45.658;11.814;2022-09-09T17:24:21;5.33;;;2.03;;
60999;SDS011;46879;45.658;11.814;2022-09-09T17:29:21;8.93;;;2.47;;
60999;SDS011;46879;45.658;11.814;2022-09-09T17:34:22;5.47;;;1.93;;
60999;SDS011;46879;45.658;11.814;2022-09-09T17:39:23;2.20;;;1.70;;
60999;SDS011;46879;45.658;11.814;2022-09-09T17:44:23;7.13;;;2.30;;
60999;SDS011;46879;45.658;11.814;2022-09-09T17:49:23;3.75;;;2.00;;
60999;SDS011;46879;45.658;11.814;2022-09-09T17:54:24;2.87;;;1.73;;
60999;SDS011;46879;45.658;11.814;2022-09-09T17:59:24;1.57;;;1.47;;
60999;SDS011;46879;45.658;11.814;2022-09-09T18:04:25;3.25;;;1.92;;
60999;SDS011;46879;45.658;11.814;2022-09-09T18:09:25;3.33;;;2.10;;
60999;SDS011;46879;45.658;11.814;2022-09-09T18:14:27;17.85;;;2.88;;
60999;SDS011;46879;45.658;11.814;2022-09-09T18:19:31;5.95;;;2.08;;
60999;SDS011;46879;45.658;11.814;2022-09-09T18:24:32;4.40;;;1.90;;
60999;SDS011;46879;45.658;11.814;2022-09-09T18:29:35;8.73;;;2.05;;
60999;SDS011;46879;45.658;11.814;2022-09-09T18:34:35;6.03;;;1.80;;
60999;SDS011;46879;45.658;11.814;2022-09-09T18:39:35;9.13;;;2.00;;
60999;SDS011;46879;45.658;11.814;2022-09-09T18:44:36;8.30;;;3.33;;
60999;SDS011;46879;45.658;11.814;2022-09-09T18:49:37;5.72;;;3.13;;
60999;SDS011;46879;45.658;11.814;2022-09-09T18:54:38;8.35;;;2.40;;
60999;SDS011;46879;45.658;11.814;2022-09-09T18:59:43;5.85;;;2.28;;
60999;SDS011;46879;45.658;11.814;2022-09-09T19:04:44;8.77;;;2.38;;
60999;SDS011;46879;45.658;11.814;2022-09-09T19:09:44;6.63;;;2.10;;
60999;SDS011;46879;45.658;11.814;2022-09-09T19:14:45;3.30;;;2.17;;
60999;SDS011;46879;45.658;11.814;2022-09-09T19:19:45;3.00;;;1.75;;
60999;SDS011;46879;45.658;11.814;2022-09-09T19:24:46;2.47;;;1.65;;
60999;SDS011;46879;45.658;11.814;2022-09-09T19:29:48;3.63;;;1.60;;
60999;SDS011;46879;45.658;11.814;2022-09-09T19:34:48;9.27;;;1.70;;
60999;SDS011;46879;45.658;11.814;2022-09-09T19:39:49;5.25;;;2.00;;
60999;SDS011;46879;45.658;11.814;2022-09-09T19:44:51;4.10;;;2.20;;
60999;SDS011;46879;45.658;11.814;2022-09-09T19:49:51;5.07;;;1.80;;
60999;SDS011;46879;45.658;11.814;2022-09-09T19:54:51;3.33;;;2.00;;
60999;SDS011;46879;45.658;11.814;2022-09-09T19:59:52;3.65;;;1.83;;
60999;SDS011;46879;45.658;11.814;2022-09-09T20:04:52;4.13;;;1.90;;
60999;SDS011;46879;45.658;11.814;2022-09-09T20:09:54;4.63;;;2.40;;
60999;SDS011;46879;45.658;11.814;2022-09-09T20:14:54;3.93;;;2.23;;
60999;SDS011;46879;45.658;11.814;2022-09-09T20:19:55;7.57;;;2.60;;
60999;SDS011;46879;45.658;11.814;2022-09-09T20:24:55;9.35;;;2.30;;
60999;SDS011;46879;45.658;11.814;2022-09-09T20:29:55;4.83;;;2.53;;
60999;SDS011;46879;45.658;11.814;2022-09-09T20:34:56;4.50;;;2.28;;
60999;SDS011;46879;45.658;11.814;2022-09-09T20:39:57;2.20;;;2.00;;
60999;SDS011;46879;45.658;11.814;2022-09-09T20:44:59;5.70;;;2.22;;
60999;SDS011;46879;45.658;11.814;2022-09-09T20:49:59;4.73;;;1.80;;
60999;SDS011;46879;45.658;11.814;2022-09-09T20:54:59;3.93;;;2.57;;
60999;SDS011;46879;45.658;11.814;2022-09-09T21:00:00;4.83;;;2.53;;
60999;SDS011;46879;45.658;11.814;2022-09-09T21:05:02;5.07;;;2.10;;
60999;SDS011;46879;45.658;11.814;2022-09-09T21:10:03;3.25;;;1.63;;
60999;SDS011;46879;45.658;11.814;2022-09-09T21:15:04;3.45;;;1.30;;
60999;SDS011;46879;45.658;11.814;2022-09-09T21:20:05;3.25;;;1.10;;
60999;SDS011;46879;45.658;11.814;2022-09-09T21:25:06;3.28;;;0.90;;
60999;SDS011;46879;45.658;11.814;2022-09-09T21:30:07;4.43;;;1.20;;
60999;SDS011;46879;45.658;11.814;2022-09-09T21:35:08;2.10;;;1.40;;
60999;SDS011;46879;45.658;11.814;2022-09-09T21:40:11;4.07;;;1.52;;
60999;SDS011;46879;45.658;11.814;2022-09-09T21:45:11;2.63;;;1.20;;
60999;SDS011;46879;45.658;11.814;2022-09-09T21:50:13;3.75;;;1.25;;
60999;SDS011;46879;45.658;11.814;2022-09-09T21:55:15;3.72;;;1.15;;
60999;SDS011;46879;45.658;11.814;2022-09-09T22:00:15;5.22;;;1.30;;
60999;SDS011;46879;45.658;11.814;2022-09-09T22:05:17;2.55;;;1.10;;
60999;SDS011;46879;45.658;11.814;2022-09-09T22:10:17;2.10;;;1.03;;
60999;SDS011;46879;45.658;11.814;2022-09-09T22:15:19;2.25;;;1.08;;
60999;SDS011;46879;45.658;11.814;2022-09-09T22:20:20;3.38;;;1.20;;
60999;SDS011;46879;45.658;11.814;2022-09-09T22:25:20;3.60;;;1.23;;
60999;SDS011;46879;45.658;11.814;2022-09-09T22:30:21;1.30;;;1.00;;
60999;SDS011;46879;45.658;11.814;2022-09-09T22:35:21;2.63;;;1.03;;
60999;SDS011;46879;45.658;11.814;2022-09-09T22:40:22;9.15;;;1.33;;
60999;SDS011;46879;45.658;11.814;2022-09-09T22:45:22;13.35;;;1.30;;
60999;SDS011;46879;45.658;11.814;2022-09-09T22:50:23;4.00;;;1.00;;
60999;SDS011;46879;45.658;11.814;2022-09-09T22:55:24;6.22;;;1.10;;
60999;SDS011;46879;45.658;11.814;2022-09-09T23:00:26;3.17;;;1.13;;
60999;SDS011;46879;45.658;11.814;2022-09-09T23:05:28;5.75;;;1.45;;
60999;SDS011;46879;45.658;11.814;2022-09-09T23:10:29;5.85;;;1.13;;
60999;SDS011;46879;45.658;11.814;2022-09-09T23:15:32;1.25;;;1.02;;
60999;SDS011;46879;45.658;11.814;2022-09-09T23:20:32;2.30;;;0.95;;
60999;SDS011;46879;45.658;11.814;2022-09-09T23:25:36;6.78;;;1.02;;
60999;SDS011;46879;45.658;11.814;2022-09-09T23:30:40;2.40;;;1.00;;
60999;SDS011;46879;45.658;11.814;2022-09-09T23:35:40;4.93;;;1.10;;
60999;SDS011;46879;45.658;11.814;2022-09-09T23:40:41;11.13;;;1.17;;
60999;SDS011;46879;45.658;11.814;2022-09-09T23:45:45;9.77;;;1.50;;
60999;SDS011;46879;45.658;11.814;2022-09-09T23:50:46;5.63;;;1.40;;
60999;SDS011;46879;45.658;11.814;2022-09-09T23:55:49;7.88;;;1.80;;
